createdAt,value
2018-04-23T00:01:27.532Z,8.87
2018-04-23T00:03:55.008Z,9.63
2018-04-23T00:06:22.477Z,11.30
2018-04-23T00:08:49.955Z,10.43
2018-04-23T00:11:17.431Z,15.30
2018-04-23T00:13:44.924Z,12.17
2018-04-23T00:16:12.422Z,12.40
2018-04-23T00:18:40.655Z,12.20
2018-04-23T00:21:08.157Z,11.00
2018-04-23T00:23:36.388Z,10.50
2018-04-23T00:26:03.855Z,10.27
2018-04-23T00:28:31.340Z,9.30
2018-04-23T00:30:59.579Z,8.40
2018-04-23T00:33:27.079Z,8.57
2018-04-23T00:35:55.312Z,8.40
2018-04-23T00:38:22.783Z,7.73
2018-04-23T00:40:50.273Z,7.93
2018-04-23T00:43:18.517Z,8.23
2018-04-23T00:45:46.018Z,7.10
2018-04-23T00:48:14.248Z,8.37
2018-04-23T00:50:41.711Z,9.30
2018-04-23T00:53:21.003Z,8.37
2018-04-23T00:55:48.471Z,8.23
2018-04-23T00:58:15.956Z,8.20
2018-04-23T01:00:43.416Z,8.30
2018-04-23T01:03:10.879Z,8.67
2018-04-23T01:05:38.362Z,7.80
2018-04-23T01:08:05.854Z,7.97
2018-04-23T01:10:33.336Z,8.63
2018-04-23T01:13:00.807Z,8.43
2018-04-23T01:15:28.270Z,7.47
2018-04-23T01:17:55.747Z,7.60
2018-04-23T01:20:23.226Z,7.63
2018-04-23T01:22:51.472Z,8.20
2018-04-23T01:25:19.712Z,8.90
2018-04-23T01:27:47.176Z,7.90
2018-04-23T01:30:14.654Z,6.50
2018-04-23T01:32:42.120Z,6.40
2018-04-23T01:35:09.612Z,6.67
2018-04-23T01:37:37.071Z,6.40
2018-04-23T01:40:05.301Z,6.90
2018-04-23T01:42:32.786Z,6.97
2018-04-23T01:45:01.012Z,7.00
2018-04-23T01:47:28.498Z,6.80
2018-04-23T01:49:55.968Z,7.10
2018-04-23T01:52:24.200Z,7.20
2018-04-23T01:54:51.680Z,7.00
2018-04-23T01:57:19.146Z,6.70
2018-04-23T01:59:46.628Z,6.40
2018-04-23T02:02:14.857Z,6.27
2018-04-23T02:04:42.372Z,6.33
2018-04-23T02:07:10.616Z,5.47
2018-04-23T02:09:38.089Z,5.40
2018-04-23T02:12:07.110Z,6.73
2018-04-23T02:14:35.344Z,7.40
2018-04-23T02:17:02.804Z,7.37
2018-04-23T02:19:30.279Z,7.77
2018-04-23T02:21:57.751Z,7.87
2018-04-23T02:24:26.330Z,7.47
2018-04-23T02:26:54.567Z,9.50
2018-04-23T02:29:22.098Z,9.50
2018-04-23T02:31:49.584Z,8.97
2018-04-23T02:34:17.055Z,8.83
2018-04-23T02:36:46.060Z,10.17
2018-04-23T02:39:13.527Z,9.90
2018-04-23T02:41:41.765Z,9.97
2018-04-23T02:44:09.253Z,8.80
2018-04-23T02:46:37.483Z,9.60
2018-04-23T02:49:04.980Z,9.60
2018-04-23T02:51:32.452Z,9.83
2018-04-23T02:53:59.920Z,9.23
2018-04-23T02:56:28.164Z,9.57
2018-04-23T02:58:55.624Z,9.80
2018-04-23T03:01:23.116Z,10.00
2018-04-23T03:03:51.355Z,9.27
2018-04-23T03:06:18.868Z,8.90
2018-04-23T03:08:46.332Z,9.00
2018-04-23T03:11:13.796Z,9.80
2018-04-23T03:13:41.276Z,8.97
2018-04-23T03:16:08.744Z,9.27
2018-04-23T03:18:36.223Z,9.90
2018-04-23T03:21:03.687Z,10.60
2018-04-23T03:23:31.445Z,10.00
2018-04-23T03:25:59.689Z,10.10
2018-04-23T03:28:27.160Z,10.90
2018-04-23T03:30:54.660Z,11.00
2018-04-23T03:33:22.892Z,11.00
2018-04-23T03:35:50.384Z,11.07
2018-04-23T03:38:18.619Z,10.00
2018-04-23T03:40:46.107Z,9.57
2018-04-23T03:43:13.580Z,9.27
2018-04-23T03:45:41.811Z,9.17
2018-04-23T03:48:09.288Z,9.17
2018-04-23T03:50:36.777Z,8.17
2018-04-23T03:53:05.015Z,7.67
2018-04-23T03:55:32.476Z,9.00
2018-04-23T03:57:59.967Z,8.23
2018-04-23T04:00:28.192Z,7.67
2018-04-23T04:02:55.668Z,8.27
2018-04-23T04:05:23.161Z,8.10
2018-04-23T04:07:51.395Z,8.70
2018-04-23T04:10:18.878Z,7.63
2018-04-23T04:12:59.840Z,8.77
2018-04-23T04:15:39.250Z,7.90
2018-04-23T04:21:08.513Z,8.57
2018-04-23T04:23:35.984Z,7.47
2018-04-23T04:26:04.325Z,8.80
2018-04-23T04:28:31.789Z,8.93
2018-04-23T04:30:59.260Z,8.77
2018-04-23T04:33:26.810Z,9.83
2018-04-23T04:35:54.279Z,8.50
2018-04-23T04:38:21.820Z,8.00
2018-04-23T04:40:49.264Z,8.47
2018-04-23T04:43:16.737Z,8.67
2018-04-23T04:45:44.260Z,10.00
2018-04-23T04:48:11.725Z,7.40
2018-04-23T04:50:39.211Z,7.17
2018-04-23T04:53:06.694Z,7.73
2018-04-23T04:55:34.192Z,7.10
2018-04-23T04:58:01.693Z,7.23
2018-04-23T05:00:29.171Z,7.80
2018-04-23T05:02:58.445Z,7.13
2018-04-23T05:05:25.912Z,7.17
2018-04-23T05:07:53.388Z,6.90
2018-04-23T05:10:21.612Z,6.70
2018-04-23T05:12:49.104Z,7.57
2018-04-23T05:15:16.572Z,6.50
2018-04-23T05:17:44.039Z,7.17
2018-04-23T05:20:12.287Z,7.17
2018-04-23T05:22:39.791Z,6.07
2018-04-23T05:25:08.010Z,6.33
2018-04-23T05:27:35.488Z,6.80
2018-04-23T05:30:02.992Z,6.90
2018-04-23T05:32:31.235Z,6.43
2018-04-23T05:34:58.700Z,6.40
2018-04-23T05:37:26.954Z,5.97
2018-04-23T05:39:54.579Z,6.07
2018-04-23T05:42:22.050Z,5.97
2018-04-23T05:44:49.547Z,6.23
2018-04-23T05:47:17.796Z,5.73
2018-04-23T05:49:45.264Z,5.80
2018-04-23T05:52:12.735Z,5.93
2018-04-23T05:54:40.977Z,5.00
2018-04-23T05:57:08.448Z,6.50
2018-04-23T05:59:35.933Z,5.30
2018-04-23T06:02:03.401Z,6.87
2018-04-23T06:04:31.712Z,7.00
2018-04-23T06:06:59.185Z,6.33
2018-04-23T06:09:26.647Z,6.70
2018-04-23T06:11:54.144Z,5.63
2018-04-23T06:14:22.421Z,5.77
2018-04-23T06:16:49.873Z,6.27
2018-04-23T06:19:17.341Z,6.67
2018-04-23T06:21:45.579Z,6.30
2018-04-23T06:24:13.079Z,6.70
2018-04-23T06:26:41.388Z,6.27
2018-04-23T06:29:08.867Z,6.67
2018-04-23T06:31:36.337Z,8.13
2018-04-23T06:34:03.827Z,7.80
2018-04-23T06:36:32.079Z,6.37
2018-04-23T06:38:59.546Z,7.40
2018-04-23T06:41:28.557Z,8.33
2018-04-23T06:43:56.798Z,7.53
2018-04-23T06:46:24.335Z,7.37
2018-04-23T06:48:52.563Z,8.10
2018-04-23T06:51:20.033Z,8.20
2018-04-23T06:53:48.279Z,7.90
2018-04-23T06:56:15.749Z,8.70
2018-04-23T06:58:43.996Z,8.97
2018-04-23T07:01:11.466Z,8.43
2018-04-23T07:03:38.972Z,9.83
2018-04-23T07:06:07.232Z,8.77
2018-04-23T07:08:35.474Z,8.70
2018-04-23T07:11:02.960Z,8.90
2018-04-23T07:13:30.443Z,9.30
2018-04-23T07:15:57.971Z,9.20
2018-04-23T07:18:26.944Z,9.93
2018-04-23T07:20:54.436Z,11.77
2018-04-23T07:23:22.667Z,9.03
2018-04-23T07:25:50.140Z,9.93
2018-04-23T07:28:17.648Z,10.60
2018-04-23T07:30:45.155Z,10.57
2018-04-23T07:33:12.659Z,9.43
2018-04-23T07:35:40.892Z,10.20
2018-04-23T07:38:08.386Z,9.70
2018-04-23T07:40:36.676Z,10.80
2018-04-23T07:43:04.208Z,10.23
2018-04-23T07:45:31.706Z,11.17
2018-04-23T07:48:00.092Z,10.43
2018-04-23T07:50:27.575Z,10.70
2018-04-23T07:52:55.069Z,10.87
2018-04-23T07:55:23.587Z,10.83
2018-04-23T07:57:51.056Z,10.50
2018-04-23T08:00:18.542Z,10.50
2018-04-23T08:02:46.024Z,11.00
2018-04-23T08:05:14.272Z,11.13
2018-04-23T08:07:41.755Z,10.63
2018-04-23T08:10:09.230Z,11.07
2018-04-23T08:12:37.486Z,10.93
2018-04-23T08:15:04.954Z,11.07
2018-04-23T08:17:33.188Z,11.27
2018-04-23T08:20:00.672Z,11.47
2018-04-23T08:22:29.644Z,10.40
2018-04-23T08:24:57.134Z,11.27
2018-04-23T08:27:24.603Z,10.63
2018-04-23T08:29:52.877Z,11.47
2018-04-23T08:32:21.123Z,12.00
2018-04-23T08:34:48.580Z,10.47
2018-04-23T08:37:16.076Z,10.57
2018-04-23T08:39:44.315Z,11.27
2018-04-23T08:42:11.804Z,11.50
2018-04-23T08:45:45.472Z,12.00
2018-04-23T08:48:12.981Z,12.07
2018-04-23T08:50:40.431Z,11.13
2018-04-23T08:53:07.926Z,12.10
2018-04-23T08:55:35.402Z,10.97
2018-04-23T08:58:02.920Z,10.27
2018-04-23T09:00:31.172Z,11.20
2018-04-23T09:02:58.644Z,11.23
2018-04-23T09:05:26.891Z,11.30
2018-04-23T09:07:54.356Z,10.87
2018-04-23T09:10:21.856Z,11.60
2018-04-23T09:12:49.329Z,10.17
2018-04-23T09:15:16.886Z,11.63
2018-04-23T09:17:44.364Z,11.30
2018-04-23T09:20:11.841Z,10.40
2018-04-23T09:22:39.330Z,11.40
2018-04-23T09:25:07.638Z,14.07
2018-04-23T09:27:35.164Z,10.97
2018-04-23T09:30:03.401Z,11.77
2018-04-23T09:32:30.887Z,11.20
2018-04-23T09:34:58.376Z,10.90
2018-04-23T09:37:25.846Z,11.47
2018-04-23T09:39:53.472Z,10.80
2018-04-23T09:42:21.708Z,13.33
2018-04-23T09:44:49.203Z,19.77
2018-04-23T09:47:16.700Z,11.00
2018-04-23T09:49:44.173Z,10.87
2018-04-23T09:52:11.672Z,11.70
2018-04-23T09:54:39.142Z,11.77
2018-04-23T09:57:07.397Z,12.80
2018-04-23T09:59:34.868Z,16.53
2018-04-23T10:02:02.371Z,11.07
2018-04-23T10:04:29.841Z,10.70
2018-04-23T10:06:57.341Z,11.70
2018-04-23T10:09:24.823Z,10.07
2018-04-23T10:11:53.056Z,10.53
2018-04-23T10:14:20.548Z,11.00
2018-04-23T10:16:48.783Z,10.47
2018-04-23T10:19:16.280Z,10.40
2018-04-23T10:23:30.642Z,10.47
2018-04-23T10:25:58.883Z,11.10
2018-04-23T10:28:26.355Z,11.45
2018-04-23T10:30:53.915Z,10.50
2018-04-23T10:33:22.210Z,10.40
2018-04-23T10:35:49.688Z,10.57
2018-04-23T10:38:17.158Z,9.10
2018-04-23T10:40:44.651Z,9.10
2018-04-23T10:43:12.111Z,9.80
2018-04-23T10:45:39.587Z,9.20
2018-04-23T10:48:07.079Z,8.90
2018-04-23T10:50:34.576Z,10.63
2018-04-23T10:53:02.072Z,11.00
2018-04-23T10:55:29.574Z,10.40
2018-04-23T10:57:57.081Z,10.20
2018-04-23T11:00:24.567Z,10.47
2018-04-23T11:02:52.049Z,9.80
2018-04-23T11:05:19.520Z,8.85
2018-04-23T11:07:46.988Z,8.00
2018-04-23T11:10:14.465Z,7.70
2018-04-23T11:12:41.955Z,9.83
2018-04-23T11:15:10.200Z,8.90
2018-04-23T11:17:37.672Z,9.30
2018-04-23T11:20:05.180Z,13.62
2018-04-23T11:22:32.664Z,8.43
2018-04-23T11:25:00.144Z,10.27
2018-04-23T11:27:27.651Z,8.00
2018-04-23T11:29:55.112Z,8.37
2018-04-23T11:32:22.572Z,7.63
2018-04-23T11:34:50.064Z,7.70
2018-04-23T11:37:17.583Z,8.30
2018-04-23T11:39:45.072Z,6.53
2018-04-23T11:42:12.561Z,7.55
2018-04-23T11:44:40.161Z,6.70
2018-04-23T11:47:07.721Z,23.40
2018-04-23T11:49:35.185Z,6.00
2018-04-23T11:52:02.668Z,6.93
2018-04-23T11:54:30.136Z,8.40
2018-04-23T11:56:58.389Z,8.40
2018-04-23T11:59:25.860Z,7.73
2018-04-23T12:01:53.389Z,6.80
2018-04-23T12:04:20.852Z,7.00
2018-04-23T12:06:48.316Z,5.87
2018-04-23T12:09:15.802Z,6.30
2018-04-23T12:11:43.259Z,6.60
2018-04-23T12:14:10.756Z,6.68
2018-04-23T12:16:39.064Z,6.70
2018-04-23T12:19:06.580Z,5.50
2018-04-23T12:21:34.841Z,6.77
2018-04-23T12:24:02.292Z,5.97
2018-04-23T12:26:29.795Z,6.93
2018-04-23T12:28:57.294Z,7.53
2018-04-23T12:31:24.831Z,7.50
2018-04-23T12:33:52.287Z,7.53
2018-04-23T12:36:19.780Z,7.53
2018-04-23T12:38:47.244Z,6.50
2018-04-23T12:41:14.724Z,6.73
2018-04-23T12:43:42.995Z,7.07
2018-04-23T12:46:10.464Z,6.57
2018-04-23T12:48:38.756Z,6.10
2018-04-23T12:51:06.294Z,6.13
2018-04-23T12:53:33.735Z,6.17
2018-04-23T12:56:01.262Z,5.70
2018-04-23T12:58:28.877Z,5.73
2018-04-23T13:00:56.802Z,5.00
2018-04-23T13:03:24.714Z,4.60
2018-04-23T13:05:52.504Z,3.93
2018-04-23T13:08:19.983Z,3.60
2018-04-23T13:10:47.668Z,4.90
2018-04-23T13:13:15.483Z,4.57
2018-04-23T13:15:42.961Z,3.80
2018-04-23T13:18:10.445Z,4.50
2018-04-23T13:20:37.916Z,3.57
2018-04-23T13:23:05.403Z,3.80
2018-04-23T13:25:33.639Z,4.00
2018-04-23T13:28:01.185Z,3.53
2018-04-23T13:30:28.674Z,3.60
2018-04-23T13:32:57.329Z,4.53
2018-04-23T13:35:24.804Z,3.63
2018-04-23T13:37:52.271Z,3.13
2018-04-23T13:40:19.779Z,3.90
2018-04-23T13:42:47.260Z,2.80
2018-04-23T13:45:15.768Z,2.60
2018-04-23T13:47:43.248Z,3.70
2018-04-23T13:50:10.786Z,3.60
2018-04-23T13:52:38.231Z,3.50
2018-04-23T13:55:05.705Z,2.90
2018-04-23T13:57:33.183Z,3.30
2018-04-23T14:00:01.460Z,3.37
2018-04-23T14:02:29.716Z,4.10
2018-04-23T14:04:58.696Z,3.20
2018-04-23T14:07:26.168Z,3.27
2018-04-23T14:09:53.645Z,3.20
2018-04-23T14:12:22.065Z,3.70
2018-04-23T14:14:49.551Z,3.67
2018-04-23T14:17:17.011Z,4.10
2018-04-23T14:19:44.503Z,5.10
2018-04-23T14:22:12.753Z,4.00
2018-04-23T14:24:40.216Z,4.20
2018-04-23T14:27:08.473Z,4.43
2018-04-23T14:29:35.938Z,5.43
2018-04-23T14:32:03.421Z,4.47
2018-04-23T14:34:31.667Z,4.97
2018-04-23T14:36:59.160Z,4.53
2018-04-23T14:39:26.624Z,5.60
2018-04-23T14:41:54.884Z,5.27
2018-04-23T14:44:22.349Z,6.37
2018-04-23T14:46:50.623Z,6.40
2018-04-23T14:49:18.100Z,5.60
2018-04-23T14:51:46.328Z,7.47
2018-04-23T14:54:13.807Z,7.73
2018-04-23T14:56:41.350Z,7.70
2018-04-23T14:59:08.888Z,8.90
2018-04-23T15:01:36.430Z,7.60
2018-04-23T15:04:03.975Z,7.90
2018-04-23T15:06:32.251Z,8.67
2018-04-23T15:09:00.640Z,8.47
2018-04-23T15:11:28.180Z,8.73
2018-04-23T15:13:56.408Z,8.57
2018-04-23T15:16:23.887Z,8.10
2018-04-23T15:18:51.566Z,8.90
2018-04-23T15:21:19.028Z,8.83
2018-04-23T15:23:46.630Z,10.03
2018-04-23T15:26:14.104Z,8.67
2018-04-23T15:28:41.604Z,8.40
2018-04-23T15:31:09.088Z,8.97
2018-04-23T15:33:37.347Z,7.90
2018-04-23T15:36:05.572Z,8.77
2018-04-23T15:38:33.027Z,8.30
2018-04-23T15:41:00.563Z,8.60
2018-04-23T15:43:28.767Z,7.80
2018-04-23T15:45:56.264Z,8.30
2018-04-23T15:48:23.738Z,7.90
2018-04-23T15:50:51.998Z,7.77
2018-04-23T15:53:19.497Z,7.80
2018-04-23T15:55:47.028Z,6.50
2018-04-23T15:58:15.280Z,6.80
2018-04-23T16:00:42.747Z,6.80
2018-04-23T16:03:10.240Z,6.87
2018-04-23T16:05:37.703Z,6.93
2018-04-23T16:08:05.240Z,6.10
2018-04-23T16:10:33.492Z,5.53
2018-04-23T16:13:00.964Z,6.67
2018-04-23T16:15:28.444Z,5.03
2018-04-23T16:17:56.675Z,5.67
2018-04-23T16:20:24.166Z,5.13
2018-04-23T16:22:52.404Z,5.17
2018-04-23T16:25:19.892Z,4.80
2018-04-23T16:27:47.363Z,5.30
2018-04-23T16:30:15.703Z,5.53
2018-04-23T16:32:43.161Z,5.10
2018-04-23T16:35:10.621Z,5.57
2018-04-23T16:37:38.163Z,5.17
2018-04-23T16:40:05.627Z,4.90
2018-04-23T16:42:33.125Z,5.20
2018-04-23T16:45:00.602Z,4.90
2018-04-23T16:47:28.861Z,4.70
2018-04-23T16:49:57.169Z,4.20
2018-04-23T16:52:24.648Z,4.30
2018-04-23T16:54:52.129Z,4.00
2018-04-23T16:57:19.634Z,4.07
2018-04-23T16:59:47.890Z,3.73
2018-04-23T17:02:16.138Z,4.60
2018-04-23T17:04:43.608Z,4.07
2018-04-23T17:07:11.096Z,4.30
2018-04-23T17:09:39.337Z,4.60
2018-04-23T17:12:06.813Z,4.40
2018-04-23T17:14:34.328Z,4.20
2018-04-23T17:17:02.161Z,4.40
2018-04-23T17:19:30.388Z,4.70
2018-04-23T17:21:57.896Z,4.20
2018-04-23T17:24:26.160Z,5.17
2018-04-23T17:26:54.414Z,14.53
2018-04-23T17:29:21.945Z,4.47
2018-04-23T17:31:49.411Z,6.67
2018-04-23T17:34:16.908Z,4.03
2018-04-23T17:36:45.402Z,5.10
2018-04-23T17:39:13.684Z,10.13
2018-04-23T17:41:41.939Z,7.17
2018-04-23T17:44:09.411Z,5.03
2018-04-23T17:46:37.652Z,4.80
2018-04-23T17:49:05.147Z,4.20
2018-04-23T17:51:33.492Z,8.13
2018-04-23T17:54:01.044Z,4.47
2018-04-23T17:56:28.543Z,4.90
2018-04-23T17:58:56.813Z,3.83
2018-04-23T18:01:25.082Z,6.43
2018-04-23T18:03:53.350Z,5.40
2018-04-23T18:06:20.839Z,3.80
2018-04-23T18:08:49.093Z,4.40
2018-04-23T18:11:16.560Z,4.60
2018-04-23T18:13:44.810Z,4.77
2018-04-23T18:16:12.272Z,4.90
2018-04-23T18:18:39.728Z,5.73
2018-04-23T18:21:07.240Z,5.27
2018-04-23T18:23:34.711Z,5.63
2018-04-23T18:26:02.188Z,5.60
2018-04-23T18:28:29.667Z,6.07
2018-04-23T18:30:57.144Z,6.13
2018-04-23T18:33:26.455Z,5.77
2018-04-23T18:35:54.703Z,6.57
2018-04-23T18:38:22.213Z,6.27
2018-04-23T18:40:49.699Z,9.90
2018-04-23T18:43:17.202Z,6.70
2018-04-23T18:45:45.484Z,7.17
2018-04-23T18:48:14.750Z,7.60
2018-04-23T18:50:43.744Z,7.83
2018-04-23T18:53:11.250Z,6.70
2018-04-23T18:55:38.771Z,6.27
2018-04-23T18:58:06.221Z,7.30
2018-04-23T19:00:33.707Z,6.63
2018-04-23T19:03:01.946Z,6.20
2018-04-23T19:05:29.444Z,7.33
2018-04-23T19:07:57.699Z,8.50
2018-04-23T19:10:25.186Z,7.20
2018-04-23T19:12:52.741Z,7.23
2018-04-23T19:15:21.020Z,6.50
2018-04-23T19:17:49.276Z,7.43
2018-04-23T19:20:17.572Z,7.00
2018-04-23T19:22:45.845Z,7.17
2018-04-23T19:25:14.181Z,7.67
2018-04-23T19:27:41.642Z,6.80
2018-04-23T19:30:09.139Z,7.40
2018-04-23T19:32:37.389Z,8.87
2018-04-23T19:35:04.894Z,7.17
2018-04-23T19:37:32.375Z,12.13
2018-04-23T19:39:59.868Z,7.83
2018-04-23T19:42:27.349Z,7.43
2018-04-23T19:44:55.572Z,8.00
2018-04-23T19:47:23.080Z,7.80
2018-04-23T19:49:51.325Z,8.60
2018-04-23T19:52:18.807Z,8.50
2018-04-23T19:54:47.050Z,8.30
2018-04-23T19:57:14.562Z,7.93
2018-04-23T19:59:42.824Z,7.87
2018-04-23T20:02:11.142Z,7.70
2018-04-23T20:04:38.624Z,7.50
2018-04-23T20:07:06.151Z,9.00
2018-04-23T20:09:33.669Z,8.50
2018-04-23T20:12:01.907Z,9.40
2018-04-23T20:14:29.425Z,8.67
2018-04-23T20:16:56.861Z,8.37
2018-04-23T20:19:24.344Z,6.93
2018-04-23T20:21:53.075Z,7.90
2018-04-23T20:24:20.594Z,8.00
2018-04-23T20:26:48.861Z,7.60
2018-04-23T20:29:17.099Z,7.17
2018-04-23T20:31:44.584Z,7.10
2018-04-23T20:34:12.852Z,7.37
2018-04-23T20:36:40.340Z,7.93
2018-04-23T20:39:07.844Z,7.83
2018-04-23T20:41:35.304Z,7.33
2018-04-23T20:44:02.808Z,8.30
2018-04-23T20:46:31.147Z,7.90
2018-04-23T20:48:58.659Z,7.30
2018-04-23T20:51:26.148Z,7.97
2018-04-23T20:53:53.631Z,7.53
2018-04-23T20:56:21.112Z,7.80
2018-04-23T20:58:48.627Z,7.27
2018-04-23T21:01:16.226Z,7.40
2018-04-23T21:03:43.688Z,8.73
2018-04-23T21:06:11.946Z,8.87
2018-04-23T21:08:39.511Z,7.10
2018-04-23T21:11:06.993Z,6.93
2018-04-23T21:13:35.239Z,6.03
2018-04-23T21:16:03.541Z,5.47
2018-04-23T21:18:31.795Z,6.10
2018-04-23T21:20:59.264Z,5.17
2018-04-23T21:23:26.739Z,4.10
2018-04-23T21:25:55.078Z,5.40
2018-04-23T21:28:23.255Z,3.63
2018-04-23T21:30:50.760Z,3.27
2018-04-23T21:33:19.165Z,3.10
2018-04-23T21:35:46.713Z,3.33
2018-04-23T21:38:14.177Z,3.67
2018-04-23T21:40:41.656Z,3.27
2018-04-23T21:43:09.484Z,2.93
2018-04-23T21:45:36.962Z,2.87
2018-04-23T21:48:04.545Z,3.27
2018-04-23T21:50:32.015Z,2.90
2018-04-23T21:52:59.473Z,2.43
2018-04-23T21:55:26.951Z,2.50
2018-04-23T21:57:55.195Z,2.70
2018-04-23T22:00:22.687Z,3.00
2018-04-23T22:02:50.921Z,2.80
2018-04-23T22:05:18.428Z,3.17
2018-04-23T22:07:46.651Z,2.63
2018-04-23T22:10:14.136Z,2.93
2018-04-23T22:12:41.608Z,2.50
2018-04-23T22:15:09.072Z,2.60
2018-04-23T22:17:37.316Z,2.47
2018-04-23T22:20:04.784Z,2.47
2018-04-23T22:22:32.273Z,2.27
2018-04-23T22:25:00.501Z,2.03
2018-04-23T22:27:27.991Z,2.00
2018-04-23T22:29:55.481Z,2.00
2018-04-23T22:32:22.960Z,2.13
2018-04-23T22:34:50.422Z,2.07
2018-04-23T22:37:17.883Z,2.50
2018-04-23T22:39:45.364Z,2.37
2018-04-23T22:42:12.845Z,2.70
2018-04-23T22:47:07.958Z,2.30
2018-04-23T22:49:35.568Z,2.63
2018-04-23T22:52:03.032Z,2.53
2018-04-23T22:54:30.524Z,2.50
2018-04-23T22:56:57.986Z,2.40
2018-04-23T22:59:25.540Z,2.70
2018-04-23T23:01:52.923Z,2.93
2018-04-23T23:04:21.152Z,2.53
2018-04-23T23:06:48.637Z,2.70
2018-04-23T23:09:16.096Z,2.60
2018-04-23T23:11:43.592Z,2.40
2018-04-23T23:14:11.059Z,2.50
2018-04-23T23:16:38.547Z,2.70
2018-04-23T23:19:06.012Z,2.33
2018-04-23T23:21:33.484Z,2.70
2018-04-23T23:24:01.019Z,2.43
2018-04-23T23:26:28.499Z,2.60
2018-04-23T23:28:56.048Z,3.30
2018-04-23T23:31:23.518Z,2.57
2018-04-23T23:33:50.992Z,2.10
2018-04-23T23:36:18.487Z,2.33
2018-04-23T23:38:45.963Z,2.40
2018-04-23T23:41:13.429Z,2.00
2018-04-23T23:43:40.970Z,2.33
2018-04-23T23:46:08.456Z,3.20
2018-04-23T23:48:35.915Z,2.87
2018-04-23T23:51:03.403Z,4.43
2018-04-23T23:53:31.631Z,1.80
2018-04-23T23:55:59.103Z,2.80
2018-04-23T23:58:26.571Z,30.30
